Time;durP1;ratioP1;P1;durP2;ratioP2;P2;SDS_P1;SDS_P2;PMS_P1;PMS_P2;Temp;Humidity;BMP_temperature;BMP_pressure;BME280_temperature;BME280_humidity;BME280_pressure;Samples;Min_cycle;Max_cycle;Signal;HPM_P1;HPM_P2
2022/03/08 00:00:26;;;;;;;2.90;2.90;;;17.00;58.40;;;;;;4996646;28;43777;-72
2022/03/08 00:02:55;;;;;;;3.27;3.17;;;16.90;58.60;;;;;;5030386;28;43550;-72
2022/03/08 00:05:24;;;;;;;2.80;2.70;;;16.80;58.70;;;;;;5029568;28;43917;-71
2022/03/08 00:07:52;;;;;;;3.40;3.30;;;16.80;58.90;;;;;;5030843;28;44384;-71
2022/03/08 00:10:20;;;;;;;3.07;2.97;;;16.70;58.90;;;;;;5029937;28;44024;-71
2022/03/08 00:12:49;;;;;;;2.87;2.87;;;16.70;59.00;;;;;;5014836;28;44091;-71
2022/03/08 00:15:18;;;;;;;3.07;2.97;;;16.70;59.10;;;;;;5013022;28;44918;-72
2022/03/08 00:17:48;;;;;;;3.47;3.37;;;16.70;59.30;;;;;;5030430;28;44295;-71
2022/03/08 00:20:16;;;;;;;3.20;3.10;;;16.60;59.40;;;;;;5028479;28;44025;-71
2022/03/08 00:22:45;;;;;;;3.30;3.20;;;16.80;59.30;;;;;;5029939;28;44411;-71
2022/03/08 00:25:13;;;;;;;3.40;3.30;;;16.90;58.90;;;;;;5029292;28;44007;-71
2022/03/08 00:27:45;;;;;;;3.10;3.00;;;16.90;58.60;;;;;;5046208;28;45325;-72
2022/03/08 00:30:14;;;;;;;3.00;3.00;;;16.90;58.70;;;;;;5015294;28;44064;-72
2022/03/08 00:32:44;;;;;;;3.30;3.20;;;16.80;58.70;;;;;;5021422;28;44481;-72
2022/03/08 00:35:14;;;;;;;3.23;3.13;;;16.80;58.80;;;;;;5003505;28;43964;-71
2022/03/08 00:37:42;;;;;;;3.13;3.03;;;16.70;58.90;;;;;;5038167;28;44315;-72
2022/03/08 00:40:11;;;;;;;3.13;3.03;;;16.70;59.00;;;;;;5020830;28;43414;-71
2022/03/08 00:42:40;;;;;;;2.97;2.87;;;16.70;59.10;;;;;;5037827;28;43990;-71
2022/03/08 00:45:11;;;;;;;3.13;3.03;;;16.60;59.10;;;;;;5036695;28;43976;-71
2022/03/08 00:47:40;;;;;;;2.97;2.97;;;16.60;59.20;;;;;;5036940;28;43530;-72
2022/03/08 00:50:13;;;;;;;2.97;2.97;;;16.60;59.20;;;;;;5036235;28;44112;-71
2022/03/08 00:52:43;;;;;;;2.87;2.77;;;16.60;59.20;;;;;;5039034;28;43952;-71
2022/03/08 00:55:13;;;;;;;3.30;3.20;;;16.60;59.30;;;;;;5003679;28;44709;-71
2022/03/08 00:57:41;;;;;;;3.40;3.30;;;16.60;59.50;;;;;;5036840;28;44329;-71
2022/03/08 01:00:12;;;;;;;3.50;3.40;;;16.60;59.40;;;;;;5019871;28;43941;-70
2022/03/08 01:02:40;;;;;;;3.10;3.00;;;16.80;59.30;;;;;;5005811;28;43982;-72
2022/03/08 01:05:09;;;;;;;3.20;3.10;;;17.00;58.90;;;;;;5004568;28;44044;-71
2022/03/08 01:07:37;;;;;;;3.20;3.20;;;17.10;58.50;;;;;;5035634;28;43349;-71
2022/03/08 01:10:10;;;;;;;3.17;3.07;;;17.20;58.20;;;;;;5035458;28;43378;-70
2022/03/08 01:12:38;;;;;;;3.13;3.03;;;17.20;58.00;;;;;;5036994;28;44187;-71
2022/03/08 01:15:07;;;;;;;3.20;3.10;;;17.10;58.10;;;;;;5019110;28;45190;-71
2022/03/08 01:17:36;;;;;;;2.93;2.83;;;17.00;58.30;;;;;;5020170;28;43869;-71
2022/03/08 01:20:05;;;;;;;2.70;2.70;;;16.90;58.40;;;;;;5037762;28;43979;-71
2022/03/08 01:22:33;;;;;;;2.83;2.70;;;16.80;58.60;;;;;;5036633;28;44047;-72
2022/03/08 01:25:02;;;;;;;3.00;2.90;;;16.80;58.80;;;;;;5003751;28;43915;-72
2022/03/08 01:27:31;;;;;;;3.00;2.90;;;16.70;58.80;;;;;;5036765;28;43917;-70
2022/03/08 01:30:00;;;;;;;2.90;2.90;;;16.70;59.00;;;;;;5037411;28;44071;-72
2022/03/08 01:32:28;;;;;;;2.90;2.80;;;16.70;59.10;;;;;;5019957;28;43851;-72
2022/03/08 01:34:56;;;;;;;2.80;2.80;;;16.60;59.60;;;;;;5037391;28;45337;-71
2022/03/08 01:37:24;;;;;;;3.03;3.00;;;16.60;59.20;;;;;;5036010;28;43452;-72
2022/03/08 01:39:54;;;;;;;3.10;3.00;;;16.60;59.40;;;;;;5020605;28;43916;-71
2022/03/08 01:42:23;;;;;;;3.23;3.13;;;16.80;59.20;;;;;;5019136;28;43986;-72
2022/03/08 01:44:53;;;;;;;2.90;2.90;;;16.80;58.90;;;;;;5016165;28;44003;-72
2022/03/08 01:47:24;;;;;;;3.07;2.97;;;16.90;58.40;;;;;;5031910;28;44016;-72
2022/03/08 01:49:52;;;;;;;2.70;2.70;;;16.90;58.60;;;;;;5018046;28;43369;-71
2022/03/08 01:52:22;;;;;;;2.97;2.97;;;16.80;58.60;;;;;;5000482;28;44318;-73
2022/03/08 01:54:50;;;;;;;2.90;2.80;;;16.80;58.80;;;;;;5000272;28;43822;-71
2022/03/08 01:57:19;;;;;;;3.17;3.07;;;16.70;58.80;;;;;;5048472;28;43890;-71
2022/03/08 01:59:47;;;;;;;2.90;2.90;;;16.70;59.00;;;;;;5019175;28;43922;-72
2022/03/08 02:02:17;;;;;;;3.27;3.17;;;16.60;59.00;;;;;;5002577;28;43565;-72
2022/03/08 02:04:45;;;;;;;2.90;2.90;;;16.60;59.10;;;;;;5017161;28;43974;-71
2022/03/08 02:07:13;;;;;;;2.87;2.80;;;16.60;59.20;;;;;;4999771;28;43460;-71
2022/03/08 02:09:42;;;;;;;3.00;2.90;;;16.60;59.20;;;;;;5033349;28;43434;-72
2022/03/08 02:12:11;;;;;;;3.00;3.00;;;16.50;59.20;;;;;;5016924;28;43425;-71
2022/03/08 02:14:41;;;;;;;3.03;2.97;;;16.60;59.30;;;;;;5032907;28;44246;-71
2022/03/08 02:17:10;;;;;;;3.57;3.47;;;16.60;59.50;;;;;;5052312;28;43821;-70
2022/03/08 02:19:40;;;;;;;3.10;3.10;;;16.60;59.50;;;;;;5035520;28;44023;-71
2022/03/08 02:22:10;;;;;;;3.23;3.13;;;16.70;59.20;;;;;;5052679;28;43917;-70
2022/03/08 02:24:38;;;;;;;3.30;3.20;;;16.90;58.90;;;;;;5035745;28;44222;-71
2022/03/08 02:27:07;;;;;;;2.77;2.77;;;17.10;58.50;;;;;;5035621;28;44044;-71
2022/03/08 02:29:36;;;;;;;2.90;2.80;;;17.10;58.10;;;;;;5035775;28;43835;-71
2022/03/08 02:32:09;;;;;;;2.83;2.83;;;17.10;57.90;;;;;;5052211;28;44387;-71
2022/03/08 02:34:37;;;;;;;2.60;2.60;;;17.00;58.00;;;;;;5035051;28;44020;-71
2022/03/08 02:37:08;;;;;;;2.97;2.90;;;16.90;58.20;;;;;;5036100;28;44823;-70
2022/03/08 02:39:38;;;;;;;2.97;2.97;;;16.90;58.40;;;;;;5053799;28;44030;-70
2022/03/08 02:42:09;;;;;;;2.77;2.77;;;16.80;58.60;;;;;;5036488;28;44032;-71
2022/03/08 02:44:37;;;;;;;2.77;2.77;;;16.70;58.70;;;;;;5035060;28;44170;-72
2022/03/08 02:47:08;;;;;;;3.30;3.20;;;16.70;58.80;;;;;;5019738;28;44634;-70
2022/03/08 02:49:36;;;;;;;3.10;3.00;;;16.70;59.00;;;;;;5053934;28;43837;-72
2022/03/08 02:52:07;;;;;;;3.00;3.00;;;16.60;59.00;;;;;;5022248;28;44220;-71
2022/03/08 02:54:35;;;;;;;3.10;3.10;;;16.60;59.10;;;;;;5054497;28;43983;-71
2022/03/08 02:57:06;;;;;;;3.20;3.10;;;16.60;59.30;;;;;;5037242;28;44043;-71
2022/03/08 02:59:34;;;;;;;3.03;3.03;;;16.60;59.30;;;;;;5053632;28;43804;-72
2022/03/08 03:02:04;;;;;;;3.37;3.27;;;16.80;59.10;;;;;;5051120;28;44097;-71
2022/03/08 03:04:33;;;;;;;3.10;3.00;;;16.80;58.60;;;;;;5034049;28;43930;-72
2022/03/08 03:07:01;;;;;;;3.10;3.00;;;16.80;58.50;;;;;;5019206;28;43377;-72
2022/03/08 03:09:29;;;;;;;2.53;2.53;;;16.80;58.60;;;;;;5020429;28;44020;-72
2022/03/08 03:11:58;;;;;;;2.50;2.50;;;16.70;58.60;;;;;;5035539;28;44092;-73
2022/03/08 03:14:28;;;;;;;2.70;2.60;;;16.70;58.80;;;;;;5051736;28;45473;-71
2022/03/08 03:16:56;;;;;;;3.17;3.07;;;16.70;59.00;;;;;;5035276;28;44072;-70
2022/03/08 03:19:25;;;;;;;3.07;2.97;;;16.60;59.60;;;;;;5035340;28;43916;-71
2022/03/08 03:21:53;;;;;;;3.00;2.90;;;16.60;59.10;;;;;;5037973;28;44013;-72
2022/03/08 03:24:22;;;;;;;3.30;3.20;;;16.60;59.20;;;;;;5020299;28;44164;-71
2022/03/08 03:26:50;;;;;;;2.67;2.67;;;16.60;59.20;;;;;;5019544;28;43783;-72
2022/03/08 03:29:18;;;;;;;3.20;3.10;;;16.50;59.20;;;;;;5035507;28;43926;-70
2022/03/08 03:31:48;;;;;;;3.10;3.10;;;16.50;59.30;;;;;;5037103;28;43329;-70
2022/03/08 03:34:16;;;;;;;3.30;3.20;;;16.50;59.30;;;;;;5035372;28;44090;-71
2022/03/08 03:36:45;;;;;;;2.90;2.90;;;16.50;59.40;;;;;;5034521;28;43894;-71
2022/03/08 03:39:13;;;;;;;2.87;2.87;;;16.60;59.50;;;;;;5051319;28;43527;-71
2022/03/08 03:41:41;;;;;;;3.17;3.10;;;16.70;59.10;;;;;;5036152;28;44025;-71
2022/03/08 03:44:11;;;;;;;3.10;3.00;;;16.90;58.70;;;;;;5018695;28;44068;-71
2022/03/08 03:46:40;;;;;;;3.37;3.27;;;17.10;59.00;;;;;;5037285;28;43925;-71
2022/03/08 03:49:10;;;;;;;3.13;3.03;;;17.10;58.00;;;;;;5052568;28;44082;-71
2022/03/08 03:51:38;;;;;;;3.20;3.10;;;17.10;57.80;;;;;;5035134;28;44005;-72
2022/03/08 03:54:06;;;;;;;2.73;2.73;;;17.00;57.90;;;;;;5017885;28;44660;-72
2022/03/08 03:56:35;;;;;;;2.70;2.70;;;16.90;58.10;;;;;;5034456;28;44394;-70
2022/03/08 03:59:04;;;;;;;2.73;2.70;;;16.80;58.30;;;;;;5035140;28;43338;-71
2022/03/08 04:01:33;;;;;;;3.00;2.90;;;16.80;58.50;;;;;;5035232;28;43496;-71
2022/03/08 04:04:01;;;;;;;3.20;3.10;;;16.70;58.60;;;;;;5036741;28;45159;-71
2022/03/08 04:06:32;;;;;;;2.90;2.90;;;16.70;58.80;;;;;;5033412;28;44587;-72
2022/03/08 04:09:00;;;;;;;2.83;2.83;;;16.60;58.80;;;;;;5051800;28;43936;-71
2022/03/08 04:11:29;;;;;;;2.93;2.83;;;16.60;59.00;;;;;;5018378;28;44055;-72
2022/03/08 04:13:57;;;;;;;3.23;3.13;;;16.60;59.10;;;;;;5033793;28;44080;-71
2022/03/08 04:16:26;;;;;;;3.23;3.13;;;16.60;59.30;;;;;;5035668;28;44336;-72
2022/03/08 04:18:54;;;;;;;2.83;2.83;;;16.60;59.20;;;;;;5022179;28;43498;-70
2022/03/08 04:21:23;;;;;;;3.10;2.97;;;16.70;58.90;;;;;;5038863;28;44122;-71
2022/03/08 04:23:52;;;;;;;3.10;3.00;;;16.80;58.60;;;;;;5038494;28;45257;-71
2022/03/08 04:26:20;;;;;;;2.80;2.70;;;16.80;58.50;;;;;;5056017;28;43545;-71
2022/03/08 04:28:49;;;;;;;3.10;3.00;;;16.70;58.50;;;;;;5021959;28;43965;-72
2022/03/08 04:31:17;;;;;;;2.83;2.83;;;16.70;58.60;;;;;;5054353;28;44016;-71
2022/03/08 04:33:45;;;;;;;3.00;2.90;;;16.60;58.70;;;;;;5021735;28;44918;-71
2022/03/08 04:36:14;;;;;;;2.90;2.80;;;16.60;58.80;;;;;;5020866;28;45880;-72
2022/03/08 04:38:42;;;;;;;2.80;2.80;;;16.50;58.90;;;;;;5023773;28;43440;-72
2022/03/08 04:41:12;;;;;;;2.87;2.87;;;16.50;59.10;;;;;;5039342;28;43660;-71
2022/03/08 04:43:40;;;;;;;3.17;3.07;;;16.50;59.10;;;;;;5038831;28;43624;-71
2022/03/08 04:46:08;;;;;;;2.80;2.80;;;16.50;59.20;;;;;;5038851;28;43957;-71
2022/03/08 04:48:37;;;;;;;3.03;3.00;;;16.50;59.30;;;;;;5055203;28;43763;-71
2022/03/08 04:51:05;;;;;;;2.90;2.80;;;16.50;59.30;;;;;;5056175;28;44105;-71
2022/03/08 04:53:34;;;;;;;3.10;3.00;;;16.40;59.20;;;;;;5038287;28;43940;-71
2022/03/08 04:56:02;;;;;;;3.20;3.10;;;16.40;59.40;;;;;;5039065;28;44665;-71
2022/03/08 04:58:33;;;;;;;2.63;2.63;;;16.50;59.40;;;;;;5022713;28;43424;-71
2022/03/08 05:01:02;;;;;;;2.70;2.60;;;16.70;59.10;;;;;;5056347;28;43420;-71
2022/03/08 05:03:30;;;;;;;3.20;3.10;;;16.80;58.70;;;;;;5037366;28;44672;-71
2022/03/08 05:05:59;;;;;;;2.77;2.77;;;17.00;58.40;;;;;;5036982;28;43889;-71
2022/03/08 05:08:28;;;;;;;2.80;2.80;;;17.00;58.00;;;;;;5021083;28;43431;-71
2022/03/08 05:10:57;;;;;;;2.47;2.47;;;17.00;57.90;;;;;;5056299;28;44022;-71
2022/03/08 05:13:25;;;;;;;2.50;2.50;;;16.90;58.00;;;;;;5055930;28;43843;-71
2022/03/08 05:15:54;;;;;;;2.70;2.70;;;16.80;58.20;;;;;;5053650;28;44016;-70
2022/03/08 05:18:24;;;;;;;2.87;2.80;;;16.70;58.40;;;;;;5056010;28;43977;-72
2022/03/08 05:20:52;;;;;;;2.40;2.40;;;16.70;58.50;;;;;;5057036;28;44231;-71
2022/03/08 05:23:21;;;;;;;2.50;2.50;;;16.60;58.60;;;;;;5039279;28;43969;-71
2022/03/08 05:25:49;;;;;;;2.97;2.87;;;16.60;58.80;;;;;;5057411;28;43374;-70
2022/03/08 05:28:17;;;;;;;3.00;3.00;;;16.60;58.90;;;;;;5024009;28;43941;-70
2022/03/08 05:30:45;;;;;;;2.73;2.63;;;16.50;59.00;;;;;;5040629;28;43615;-71
2022/03/08 05:33:16;;;;;;;2.67;2.57;;;16.50;59.00;;;;;;5024329;28;44058;-71
2022/03/08 05:35:44;;;;;;;2.83;2.80;;;16.50;59.30;;;;;;5039806;28;43987;-71
2022/03/08 05:38:13;;;;;;;2.77;2.70;;;16.60;59.30;;;;;;5039546;28;43475;-71
2022/03/08 05:40:44;;;;;;;2.70;2.67;;;16.60;58.90;;;;;;5041691;28;44139;-71
2022/03/08 05:43:13;;;;;;;2.83;2.83;;;16.70;58.60;;;;;;5022775;28;44232;-71
2022/03/08 05:45:43;;;;;;;2.70;2.60;;;16.70;58.40;;;;;;5057790;28;44373;-71
2022/03/08 05:48:13;;;;;;;2.70;2.60;;;16.70;58.60;;;;;;5075565;28;44036;-71
2022/03/08 05:50:43;;;;;;;2.53;2.53;;;16.60;58.70;;;;;;5024522;28;44176;-72
2022/03/08 05:53:11;;;;;;;2.80;2.70;;;16.50;58.70;;;;;;5024291;28;43834;-72
2022/03/08 05:55:42;;;;;;;2.50;2.50;;;16.50;58.90;;;;;;5023798;28;44404;-72
2022/03/08 05:58:10;;;;;;;2.83;2.83;;;16.50;59.00;;;;;;5041146;28;43694;-71
2022/03/08 06:00:39;;;;;;;2.27;2.27;;;16.50;59.10;;;;;;5005027;28;43949;-71
2022/03/08 06:03:09;;;;;;;2.60;2.60;;;16.40;59.10;;;;;;5055914;28;43750;-71
2022/03/08 06:05:39;;;;;;;2.53;2.53;;;16.40;59.10;;;;;;5021055;28;45166;-71
2022/03/08 06:08:09;;;;;;;2.60;2.60;;;16.40;59.20;;;;;;5004927;28;43980;-72
2022/03/08 06:10:38;;;;;;;2.53;2.53;;;16.40;59.20;;;;;;5037555;28;43645;-72
2022/03/08 06:13:06;;;;;;;2.77;2.77;;;16.40;59.30;;;;;;5020634;28;44105;-71
2022/03/08 06:15:37;;;;;;;2.60;2.60;;;16.40;59.40;;;;;;5021231;28;43808;-71
2022/03/08 06:18:05;;;;;;;2.60;2.60;;;16.50;59.30;;;;;;5038084;28;44029;-73
2022/03/08 06:20:34;;;;;;;2.67;2.57;;;16.60;59.00;;;;;;5021620;28;44014;-71
2022/03/08 06:23:03;;;;;;;2.80;2.80;;;16.90;58.70;;;;;;5021481;28;44009;-71
2022/03/08 06:25:33;;;;;;;2.50;2.50;;;16.90;58.20;;;;;;5036323;28;43924;-71
2022/03/08 06:28:01;;;;;;;2.93;2.83;;;17.00;58.00;;;;;;5019836;28;43996;-71
2022/03/08 06:30:30;;;;;;;2.60;2.60;;;16.90;58.40;;;;;;5020961;28;43886;-71
2022/03/08 06:32:58;;;;;;;2.53;2.53;;;16.80;58.00;;;;;;5039282;28;44089;-72
2022/03/08 06:35:27;;;;;;;2.80;2.80;;;16.80;58.30;;;;;;5021576;28;44254;-71
2022/03/08 06:37:55;;;;;;;2.50;2.50;;;16.70;58.40;;;;;;5037290;28;43785;-71
2022/03/08 06:40:24;;;;;;;2.30;2.30;;;16.60;58.60;;;;;;5020415;28;44076;-70
2022/03/08 06:42:54;;;;;;;2.40;2.40;;;16.60;58.70;;;;;;5038594;28;45732;-71
2022/03/08 06:45:22;;;;;;;2.60;2.60;;;16.50;58.80;;;;;;5021655;28;43836;-70
2022/03/08 06:47:52;;;;;;;2.47;2.47;;;16.50;58.90;;;;;;5023001;28;43985;-70
2022/03/08 06:50:20;;;;;;;2.60;2.60;;;16.50;59.00;;;;;;5004432;28;43660;-71
2022/03/08 06:52:50;;;;;;;2.90;2.90;;;16.40;59.00;;;;;;5004382;28;44163;-71
2022/03/08 06:55:18;;;;;;;2.87;2.77;;;16.40;59.20;;;;;;5005135;28;43898;-72
2022/03/08 06:57:46;;;;;;;2.60;2.50;;;16.50;59.20;;;;;;5022888;28;44070;-72
2022/03/08 07:00:20;;;;;;;2.70;2.70;;;16.60;58.80;;;;;;5022947;28;43952;-71
2022/03/08 07:02:48;;;;;;;2.90;2.80;;;16.70;58.60;;;;;;5003261;28;43814;-71
2022/03/08 07:05:16;;;;;;;2.50;2.50;;;16.60;58.50;;;;;;5019121;28;44579;-72
2022/03/08 07:07:47;;;;;;;2.43;2.43;;;16.60;58.60;;;;;;5020956;28;43831;-70
2022/03/08 07:10:15;;;;;;;2.50;2.50;;;16.60;59.40;;;;;;5038451;28;43569;-71
2022/03/08 07:12:43;;;;;;;2.63;2.63;;;16.50;58.80;;;;;;5004081;28;43991;-72
2022/03/08 07:15:14;;;;;;;2.50;2.50;;;16.50;59.00;;;;;;5018626;28;43916;-71
2022/03/08 07:17:46;;;;;;;2.90;2.80;;;16.40;59.00;;;;;;5035978;28;43336;-72
2022/03/08 07:20:15;;;;;;;2.40;2.40;;;16.40;59.10;;;;;;5036058;28;43472;-71
2022/03/08 07:22:44;;;;;;;2.77;2.67;;;16.40;59.20;;;;;;5038061;28;44745;-71
2022/03/08 07:25:13;;;;;;;2.47;2.47;;;16.40;59.30;;;;;;5022206;28;44348;-71
2022/03/08 07:27:41;;;;;;;2.30;2.30;;;16.30;59.20;;;;;;5005701;28;43898;-70
2022/03/08 07:30:12;;;;;;;2.37;2.37;;;16.40;59.20;;;;;;5020486;28;44040;-71
2022/03/08 07:32:40;;;;;;;2.30;2.30;;;16.30;59.30;;;;;;5020120;28;44083;-71
2022/03/08 07:35:11;;;;;;;2.30;2.20;;;16.30;59.40;;;;;;5002857;28;44006;-71
2022/03/08 07:37:40;;;;;;;2.40;2.40;;;16.50;59.30;;;;;;5054048;28;44034;-72
2022/03/08 07:40:12;;;;;;;2.67;2.67;;;16.60;58.90;;;;;;5037062;28;44116;-71
2022/03/08 07:42:40;;;;;;;2.30;2.30;;;16.80;58.60;;;;;;5036759;28;44125;-71
2022/03/08 07:45:11;;;;;;;2.47;2.37;;;16.90;58.30;;;;;;5002713;28;45024;-71
2022/03/08 07:47:39;;;;;;;2.43;2.43;;;16.90;58.00;;;;;;5019685;28;44096;-70
2022/03/08 07:50:12;;;;;;;2.73;2.53;;;16.80;57.90;;;;;;5020443;28;43980;-71
2022/03/08 07:52:41;;;;;;;2.70;2.70;;;16.80;58.20;;;;;;5036516;28;45600;-72
2022/03/08 07:55:11;;;;;;;2.60;2.57;;;16.70;58.40;;;;;;5021711;28;44005;-71
2022/03/08 07:57:39;;;;;;;2.67;2.67;;;16.60;58.60;;;;;;5037941;28;43889;-71
2022/03/08 08:00:28;;;;;;;2.33;2.33;;;16.60;58.80;;;;;;5023270;28;43941;-71
2022/03/08 08:02:56;;;;;;;2.67;2.57;;;16.50;58.90;;;;;;5035566;28;43925;-71
2022/03/08 08:05:27;;;;;;;2.27;2.27;;;16.40;58.90;;;;;;5002664;28;45187;-71
2022/03/08 08:07:57;;;;;;;2.40;2.40;;;16.40;59.00;;;;;;5038714;28;44070;-72
2022/03/08 08:10:26;;;;;;;2.53;2.53;;;16.40;59.10;;;;;;5038648;28;44108;-70
2022/03/08 08:12:56;;;;;;;2.40;2.40;;;16.40;59.20;;;;;;5022048;28;44008;-71
2022/03/08 08:15:25;;;;;;;2.40;2.40;;;16.40;59.40;;;;;;5002621;28;43372;-71
2022/03/08 08:17:53;;;;;;;2.67;2.57;;;16.50;59.20;;;;;;5019210;28;43964;-72
2022/03/08 08:20:21;;;;;;;2.53;2.53;;;16.60;58.90;;;;;;5003120;28;43500;-71
2022/03/08 08:22:51;;;;;;;2.57;2.47;;;16.60;58.60;;;;;;5020527;28;45512;-71
2022/03/08 08:25:22;;;;;;;2.20;2.20;;;16.60;58.60;;;;;;5020200;28;44277;-71
2022/03/08 08:27:50;;;;;;;2.40;2.30;;;16.60;58.70;;;;;;5005155;28;44000;-72
2022/03/08 08:30:19;;;;;;;2.50;2.40;;;16.50;58.80;;;;;;5020806;28;43591;-71
2022/03/08 08:32:50;;;;;;;2.60;2.40;;;16.50;58.90;;;;;;5019013;28;44006;-72
2022/03/08 08:35:18;;;;;;;2.20;2.20;;;16.50;59.10;;;;;;5001934;28;44030;-71
2022/03/08 08:37:47;;;;;;;2.20;2.20;;;16.40;59.10;;;;;;5001767;28;43321;-71
2022/03/08 08:40:17;;;;;;;2.60;2.40;;;16.40;59.20;;;;;;5017682;28;44136;-71
2022/03/08 08:42:47;;;;;;;2.20;2.20;;;16.40;59.20;;;;;;5033740;28;44870;-71
2022/03/08 08:45:16;;;;;;;2.30;2.30;;;16.40;59.20;;;;;;5020200;28;44000;-72
2022/03/08 08:47:46;;;;;;;2.33;2.13;;;16.30;59.10;;;;;;5018643;28;43369;-72
2022/03/08 08:50:15;;;;;;;2.47;2.47;;;16.30;59.10;;;;;;5002941;28;44196;-71
2022/03/08 08:52:43;;;;;;;2.30;2.30;;;16.30;59.10;;;;;;5019025;28;44714;-71
2022/03/08 08:55:11;;;;;;;2.30;2.30;;;16.30;59.30;;;;;;5037615;28;43385;-70
2022/03/08 08:57:41;;;;;;;2.50;2.50;;;16.40;59.30;;;;;;5023516;28;44257;-70
2022/03/08 09:00:10;;;;;;;2.33;2.33;;;16.60;59.10;;;;;;5058173;28;43464;-71
2022/03/08 09:02:42;;;;;;;2.20;2.20;;;16.70;58.70;;;;;;5005982;28;44890;-72
2022/03/08 09:05:13;;;;;;;2.30;2.30;;;16.80;58.40;;;;;;5036667;28;44013;-70
2022/03/08 09:07:41;;;;;;;2.20;2.20;;;16.90;58.10;;;;;;5005184;28;43978;-71
2022/03/08 09:10:11;;;;;;;2.10;2.10;;;16.90;57.90;;;;;;5040397;28;43977;-71
2022/03/08 09:12:41;;;;;;;2.23;2.23;;;16.80;58.00;;;;;;5039635;28;43981;-70
2022/03/08 09:15:10;;;;;;;2.20;2.20;;;16.70;58.10;;;;;;5035743;28;44065;-71
2022/03/08 09:17:38;;;;;;;2.50;2.40;;;16.70;58.30;;;;;;5017461;28;43365;-71
2022/03/08 09:20:09;;;;;;;2.30;2.30;;;16.60;58.30;;;;;;5051778;28;43932;-70
2022/03/08 09:22:38;;;;;;;2.10;2.10;;;16.60;58.50;;;;;;5001687;28;44285;-72
2022/03/08 09:25:06;;;;;;;2.30;2.20;;;16.50;58.60;;;;;;5017200;28;44653;-72
2022/03/08 09:27:35;;;;;;;2.13;2.10;;;16.50;58.80;;;;;;5035337;28;43398;-71
2022/03/08 09:30:08;;;;;;;2.40;2.40;;;16.50;58.90;;;;;;5034189;28;43521;-72
2022/03/08 09:32:36;;;;;;;2.40;2.30;;;16.40;58.80;;;;;;5017414;28;44278;-72
2022/03/08 09:35:07;;;;;;;2.30;2.20;;;16.40;58.80;;;;;;5019949;28;44126;-72
2022/03/08 09:37:35;;;;;;;2.33;2.23;;;16.40;59.20;;;;;;5016957;28;44097;-71
2022/03/08 09:40:05;;;;;;;2.20;2.20;;;16.50;59.00;;;;;;5001760;28;44476;-71
2022/03/08 09:42:33;;;;;;;2.37;2.37;;;16.60;58.50;;;;;;5052776;28;43565;-72
2022/03/08 09:45:02;;;;;;;2.60;2.40;;;16.60;58.60;;;;;;5034611;28;44571;-72
2022/03/08 09:47:37;;;;;;;2.40;2.30;;;16.60;58.60;;;;;;5032708;28;43908;-71
2022/03/08 09:50:08;;;;;;;2.00;2.00;;;16.60;58.80;;;;;;5016691;28;44083;-70
2022/03/08 09:52:38;;;;;;;2.43;2.40;;;16.60;58.80;;;;;;5016181;28;45691;-72
2022/03/08 09:55:06;;;;;;;2.30;2.20;;;16.50;58.80;;;;;;5016287;28;45240;-71
2022/03/08 09:57:35;;;;;;;2.33;2.23;;;16.50;58.90;;;;;;5032377;28;43410;-72
2022/03/08 10:00:04;;;;;;;2.47;2.37;;;16.50;58.90;;;;;;5016776;28;43906;-72
2022/03/08 10:02:45;;;;;;;2.13;2.13;;;16.50;58.90;;;;;;5017296;28;43628;-71
2022/03/08 10:05:15;;;;;;;2.13;2.13;;;16.50;58.90;;;;;;5014684;28;44316;-71
2022/03/08 10:08:04;;;;;;;2.90;2.30;;;16.50;59.00;;;;;;5016290;28;44025;-72
2022/03/08 10:10:32;;;;;;;1.80;1.80;;;16.50;59.10;;;;;;5032854;28;43416;-71
2022/03/08 10:13:04;;;;;;;2.40;2.30;;;16.50;59.00;;;;;;4999661;28;45306;-71
2022/03/08 10:15:32;;;;;;;2.10;2.07;;;16.50;59.00;;;;;;5015680;28;43946;-71
2022/03/08 10:18:02;;;;;;;2.40;2.30;;;16.50;59.10;;;;;;5015590;28;44093;-71
2022/03/08 10:20:32;;;;;;;2.30;2.30;;;16.50;59.00;;;;;;5031223;28;44065;-71
2022/03/08 10:23:00;;;;;;;1.87;1.87;;;16.70;58.70;;;;;;5015395;28;43851;-72
2022/03/08 10:25:31;;;;;;;2.20;2.20;;;16.80;58.20;;;;;;5015246;28;44279;-71
2022/03/08 10:28:00;;;;;;;2.20;2.10;;;16.90;57.80;;;;;;4998998;28;43369;-72
2022/03/08 10:30:29;;;;;;;2.00;2.00;;;16.90;57.80;;;;;;5032226;28;43459;-72
2022/03/08 10:33:06;;;;;;;2.03;2.03;;;16.80;57.70;;;;;;5017110;28;44810;-71
2022/03/08 10:35:38;;;;;;;2.00;2.00;;;16.80;58.00;;;;;;5014917;28;43382;-71
2022/03/08 10:38:08;;;;;;;2.40;2.30;;;16.80;58.20;;;;;;5050006;28;43392;-72
2022/03/08 10:40:38;;;;;;;2.30;2.10;;;16.70;58.30;;;;;;5031164;28;43988;-72
2022/03/08 10:43:06;;;;;;;2.50;2.40;;;16.70;58.50;;;;;;5014800;28;44008;-72
2022/03/08 10:45:36;;;;;;;2.30;2.20;;;16.60;58.50;;;;;;5031002;28;43456;-71
2022/03/08 10:48:07;;;;;;;1.97;1.97;;;16.60;58.60;;;;;;5014663;28;43489;-71
2022/03/08 10:50:37;;;;;;;2.50;2.40;;;16.60;58.70;;;;;;5049194;28;43915;-72
2022/03/08 10:53:07;;;;;;;2.10;2.10;;;16.60;58.80;;;;;;5014918;28;43984;-72
2022/03/08 10:55:36;;;;;;;2.33;2.30;;;16.60;58.80;;;;;;5014788;28;44054;-71
2022/03/08 10:58:07;;;;;;;2.23;2.23;;;16.60;59.00;;;;;;5013938;28;43848;-71
2022/03/08 11:00:38;;;;;;;2.13;2.03;;;16.60;59.10;;;;;;5030496;28;43448;-72
2022/03/08 11:03:09;;;;;;;2.07;2.07;;;16.70;58.60;;;;;;5013507;28;43920;-72
2022/03/08 11:05:38;;;;;;;2.17;2.07;;;16.70;58.50;;;;;;5014235;28;44265;-72
2022/03/08 11:08:06;;;;;;;1.90;1.90;;;16.70;58.50;;;;;;5029940;28;43922;-71
2022/03/08 11:10:35;;;;;;;2.20;2.10;;;16.70;58.60;;;;;;5048868;28;43458;-72
2022/03/08 11:13:03;;;;;;;2.00;2.00;;;16.70;58.60;;;;;;5048385;28;43858;-72
2022/03/08 11:15:33;;;;;;;5.30;2.30;;;16.60;58.70;;;;;;5012947;28;43412;-72
2022/03/08 11:18:01;;;;;;;3.13;2.00;;;16.60;58.70;;;;;;5048514;28;44039;-72
2022/03/08 11:20:31;;;;;;;5.33;2.63;;;16.60;58.80;;;;;;5031143;28;43794;-71
2022/03/08 11:23:00;;;;;;;7.40;2.60;;;16.60;58.80;;;;;;4997949;28;43978;-71
2022/03/08 11:25:30;;;;;;;12.97;2.97;;;16.60;59.00;;;;;;5013778;28;44336;-72
2022/03/08 11:28:15;;;;;;;10.17;2.97;;;16.60;59.00;;;;;;5032747;28;44030;-72
2022/03/08 11:30:46;;;;;;;9.33;3.03;;;16.60;59.00;;;;;;5014913;28;43980;-72
2022/03/08 11:33:18;;;;;;;17.80;3.13;;;16.60;59.00;;;;;;5013564;28;44107;-73
2022/03/08 11:35:54;;;;;;;25.77;3.67;;;16.60;59.00;;;;;;5014268;28;43428;-71
2022/03/08 11:38:22;;;;;;;26.17;3.60;;;16.60;59.10;;;;;;5013143;28;43520;-72
2022/03/08 11:40:53;;;;;;;27.90;4.50;;;16.60;59.20;;;;;;5014279;28;43457;-71
2022/03/08 11:43:22;;;;;;;21.50;4.00;;;16.70;59.00;;;;;;5046784;28;44986;-72
2022/03/08 11:45:53;;;;;;;19.60;3.17;;;16.90;58.70;;;;;;5048462;28;44016;-71
2022/03/08 11:48:21;;;;;;;24.63;4.00;;;17.00;58.30;;;;;;5012504;28;43389;-71
2022/03/08 11:50:52;;;;;;;16.63;3.77;;;17.00;58.00;;;;;;4996952;28;43474;-71
2022/03/08 11:53:25;;;;;;;14.83;3.10;;;17.00;58.30;;;;;;5028735;28;43581;-72
2022/03/08 11:55:56;;;;;;;11.53;2.93;;;16.90;58.30;;;;;;5029114;28;43972;-71
2022/03/08 11:58:42;;;;;;;23.63;3.93;;;16.90;58.50;;;;;;5012873;28;43905;-72
2022/03/08 12:01:21;;;;;;;13.07;3.37;;;16.80;58.50;;;;;;5012803;28;44185;-71
2022/03/08 12:03:55;;;;;;;23.63;3.50;;;16.80;58.60;;;;;;5029002;28;44110;-72
2022/03/08 12:06:32;;;;;;;11.53;3.43;;;16.80;58.80;;;;;;5028188;28;43905;-71
2022/03/08 12:09:07;;;;;;;15.93;3.53;;;16.80;58.90;;;;;;5013245;28;43939;-72
2022/03/08 12:11:39;;;;;;;11.53;3.23;;;16.70;58.90;;;;;;5046950;28;44016;-72
2022/03/08 12:14:29;;;;;;;13.70;3.23;;;16.70;58.80;;;;;;5001182;28;44991;-72
2022/03/08 12:17:09;;;;;;;16.53;3.23;;;16.70;59.00;;;;;;5046786;28;43933;-72
2022/03/08 12:19:38;;;;;;;16.83;3.83;;;16.70;59.10;;;;;;4995439;28;43797;-71
2022/03/08 12:22:12;;;;;;;13.23;3.20;;;16.80;58.90;;;;;;5029526;28;43910;-73
2022/03/08 12:24:43;;;;;;;13.10;3.17;;;16.80;58.70;;;;;;5012283;28;45393;-72
2022/03/08 12:27:12;;;;;;;12.17;3.07;;;16.90;58.80;;;;;;5027236;28;43941;-71
2022/03/08 12:29:59;;;;;;;9.87;3.17;;;16.80;58.60;;;;;;5001343;28;43345;-72
2022/03/08 12:32:39;;;;;;;9.83;3.10;;;16.80;58.80;;;;;;5028337;28;43984;-71
2022/03/08 12:35:13;;;;;;;6.17;3.00;;;16.80;58.90;;;;;;5028263;28;45422;-71
2022/03/08 12:37:51;;;;;;;11.37;3.80;;;16.80;59.00;;;;;;5012289;28;44015;-72
2022/03/08 12:40:32;;;;;;;16.43;3.10;;;16.70;59.00;;;;;;4996275;28;43920;-71
2022/03/08 12:43:03;;;;;;;17.77;4.03;;;16.70;59.10;;;;;;5046937;28;44066;-71
2022/03/08 12:45:32;;;;;;;8.47;2.73;;;16.70;59.10;;;;;;5027972;28;44854;-72
2022/03/08 12:48:02;;;;;;;13.73;3.00;;;16.70;59.10;;;;;;5028875;28;44340;-71
2022/03/08 12:50:31;;;;;;;7.20;3.20;;;16.70;59.10;;;;;;5013123;28;43982;-71
2022/03/08 12:53:01;;;;;;;9.63;2.83;;;16.70;59.20;;;;;;5012151;28;44310;-71
2022/03/08 12:55:31;;;;;;;7.67;2.80;;;16.70;59.20;;;;;;5012115;28;43966;-72
2022/03/08 12:58:00;;;;;;;9.93;2.80;;;16.70;59.20;;;;;;5011905;28;43986;-71